createdAt,value
2018-06-18T00:00:43.386Z,79.10
2018-06-18T00:05:26.036Z,82.39
2018-06-18T00:10:04.657Z,82.91
2018-06-18T00:14:44.241Z,83.23
2018-06-18T00:19:22.838Z,79.46
2018-06-18T00:24:05.326Z,78.35
2018-06-18T00:28:43.833Z,78.65
2018-06-18T00:33:23.494Z,81.28
2018-06-18T00:38:02.035Z,86.24
2018-06-18T00:42:43.722Z,86.02
2018-06-18T00:47:22.252Z,84.69
2018-06-18T00:52:00.756Z,83.85
2018-06-18T00:56:44.338Z,82.37
2018-06-18T01:01:23.013Z,82.58
2018-06-18T01:06:05.073Z,81.26
2018-06-18T01:10:43.763Z,80.83
2018-06-18T01:15:22.418Z,83.31
2018-06-18T01:20:01.366Z,81.91
2018-06-18T01:24:58.508Z,82.82
2018-06-18T01:29:37.126Z,85.39
2018-06-18T01:34:20.288Z,82.42
2018-06-18T01:38:58.910Z,86.01
2018-06-18T01:43:38.553Z,86.11
2018-06-18T01:48:17.053Z,85.84
2018-06-18T01:52:59.335Z,84.91
2018-06-18T01:57:37.930Z,84.12
2018-06-18T02:02:16.469Z,83.89
2018-06-18T02:06:56.082Z,84.02
2018-06-18T02:11:34.642Z,83.23
2018-06-18T02:16:17.305Z,81.92
2018-06-18T02:20:55.838Z,83.24
2018-06-18T02:25:35.642Z,83.26
2018-06-18T02:30:19.765Z,83.38
2018-06-18T02:35:03.794Z,82.74
2018-06-18T02:39:47.851Z,82.43
2018-06-18T02:44:29.826Z,85.21
2018-06-18T02:49:08.575Z,81.76
2018-06-18T02:53:48.252Z,82.33
2018-06-18T02:58:26.924Z,83.69
2018-06-18T03:03:11.397Z,84.81
2018-06-18T03:07:50.581Z,83.10
2018-06-18T03:12:33.101Z,83.33
2018-06-18T03:17:11.752Z,83.93
2018-06-18T03:21:55.828Z,83.12
2018-06-18T03:26:40.981Z,83.77
2018-06-18T03:31:19.464Z,83.28
2018-06-18T03:36:01.948Z,83.13
2018-06-18T03:40:40.595Z,81.48
2018-06-18T03:45:30.307Z,82.33
2018-06-18T03:50:08.953Z,82.39
2018-06-18T03:54:54.334Z,84.42
2018-06-18T03:59:32.846Z,83.30
2018-06-18T04:04:16.797Z,82.77
2018-06-18T04:09:00.607Z,82.38
2018-06-18T04:13:42.917Z,81.19
2018-06-18T04:18:21.553Z,80.42
2018-06-18T04:23:01.258Z,81.06
2018-06-18T04:27:39.858Z,82.00
2018-06-18T04:32:21.921Z,80.96
2018-06-18T04:37:00.411Z,80.10
2018-06-18T04:41:43.280Z,79.22
2018-06-18T04:46:30.530Z,80.70
2018-06-18T04:51:09.136Z,80.09
2018-06-18T04:55:51.650Z,79.20
2018-06-18T05:00:41.552Z,78.75
2018-06-18T05:05:33.647Z,77.02
2018-06-18T05:10:40.268Z,77.78
2018-06-18T05:15:23.388Z,77.64
2018-06-18T05:25:26.598Z,75.78
2018-06-18T05:30:35.021Z,74.72
2018-06-18T05:35:17.890Z,74.56
2018-06-18T05:39:56.379Z,73.78
2018-06-18T05:44:38.337Z,72.26
2018-06-18T05:49:16.936Z,72.89
2018-06-18T05:53:56.733Z,73.00
2018-06-18T05:58:35.431Z,72.50
2018-06-18T06:03:17.797Z,71.58
2018-06-18T06:07:56.418Z,71.05
2018-06-18T06:12:38.577Z,70.54
2018-06-18T06:17:17.118Z,71.13
2018-06-18T06:21:59.002Z,70.63
2018-06-18T06:26:37.587Z,68.61
2018-06-18T06:31:16.184Z,69.08
2018-06-18T06:35:59.901Z,70.34
2018-06-18T06:40:38.397Z,69.90
2018-06-18T06:45:21.463Z,69.56
2018-06-18T06:49:59.976Z,69.43
2018-06-18T06:54:38.566Z,70.34
2018-06-18T06:59:17.146Z,69.18
2018-06-18T07:03:55.902Z,69.39
2018-06-18T07:08:34.319Z,68.27
2018-06-18T07:13:16.865Z,69.54
2018-06-18T07:17:55.428Z,70.19
2018-06-18T07:22:34.104Z,67.91
2018-06-18T07:27:12.578Z,65.64
2018-06-18T07:31:51.506Z,64.87
2018-06-18T07:36:30.113Z,64.32
2018-06-18T07:41:09.197Z,64.94
2018-06-18T07:45:48.835Z,64.82
2018-06-18T07:50:27.437Z,65.11
2018-06-18T07:55:06.681Z,63.12
2018-06-18T07:59:45.196Z,62.10
2018-06-18T08:04:24.660Z,61.93
2018-06-18T08:09:03.993Z,61.16
2018-06-18T08:13:43.545Z,60.14
2018-06-18T08:18:22.100Z,62.30
2018-06-18T08:23:00.921Z,62.32
2018-06-18T08:27:39.447Z,61.89
2018-06-18T08:32:21.722Z,62.07
2018-06-18T08:37:00.247Z,61.75
2018-06-18T08:57:16.304Z,59.71
2018-06-18T09:01:58.049Z,59.84
2018-06-18T09:06:36.670Z,59.77
2018-06-18T09:11:15.190Z,59.99
2018-06-18T09:15:53.661Z,58.96
2018-06-18T09:46:43.319Z,53.91
2018-06-18T09:53:32.716Z,54.52
2018-06-18T09:58:16.484Z,54.13
2018-06-18T10:02:58.831Z,50.81
2018-06-18T10:07:37.519Z,50.54
2018-06-18T10:12:21.639Z,52.42
2018-06-18T10:17:00.314Z,53.16
2018-06-18T10:21:45.216Z,53.46
2018-06-18T10:26:23.976Z,51.14
2018-06-18T10:31:02.775Z,51.97
2018-06-18T10:37:49.053Z,47.50
2018-06-18T10:43:41.822Z,47.68
2018-06-18T10:48:21.389Z,46.90
2018-06-18T10:53:03.109Z,45.43
2018-06-18T10:57:42.408Z,44.82
2018-06-18T11:02:26.624Z,46.76
2018-06-18T11:07:05.414Z,45.67
2018-06-18T11:11:45.194Z,44.41
2018-06-18T11:16:24.030Z,44.39
2018-06-18T11:21:07.704Z,44.41
2018-06-18T11:25:51.745Z,44.08
2018-06-18T11:30:30.493Z,44.49
2018-06-18T11:35:12.477Z,43.51
2018-06-18T11:39:51.235Z,42.36
2018-06-18T11:44:33.330Z,40.21
2018-06-18T11:49:11.965Z,42.37
2018-06-18T11:53:56.470Z,40.84
2018-06-18T11:58:41.170Z,39.82
2018-06-18T12:03:29.015Z,40.21
2018-06-18T12:08:12.866Z,42.17
2018-06-18T12:12:55.108Z,38.96
2018-06-18T12:17:33.864Z,39.30
2018-06-18T12:22:13.738Z,38.94
2018-06-18T12:26:52.525Z,38.92
2018-06-18T12:31:32.502Z,37.64
2018-06-18T12:36:11.282Z,36.23
2018-06-18T12:40:50.098Z,35.18
2018-06-18T12:45:35.064Z,36.84
2018-06-18T12:50:19.046Z,34.80
2018-06-18T12:55:03.065Z,36.21
2018-06-18T12:59:41.716Z,38.01
2018-06-18T13:04:24.008Z,37.80
2018-06-18T13:09:02.728Z,37.79
2018-06-18T13:13:42.590Z,40.45
2018-06-18T13:18:22.001Z,40.40
2018-06-18T13:23:04.713Z,40.05
2018-06-18T13:27:48.652Z,38.37
2018-06-18T13:32:30.711Z,40.27
2018-06-18T13:37:14.897Z,39.62
2018-06-18T13:42:00.848Z,36.95
2018-06-18T13:46:45.550Z,37.86
2018-06-18T13:51:30.345Z,37.25
2018-06-18T13:56:09.086Z,37.39
2018-06-18T14:00:49.663Z,37.18
2018-06-18T14:05:29.466Z,37.48
2018-06-18T14:10:08.787Z,36.38
2018-06-18T14:14:48.755Z,37.05
2018-06-18T14:19:33.723Z,36.26
2018-06-18T14:24:16.599Z,35.56
2018-06-18T14:28:55.199Z,34.85
2018-06-18T14:33:40.046Z,35.36
2018-06-18T14:38:23.728Z,37.07
2018-06-18T14:43:06.880Z,37.05
2018-06-18T14:47:45.458Z,38.28
2018-06-18T14:52:25.236Z,37.74
2018-06-18T14:57:04.456Z,36.35
2018-06-18T15:01:43.989Z,34.34
2018-06-18T15:06:22.545Z,33.52
2018-06-18T15:11:01.123Z,33.87
2018-06-18T15:15:45.024Z,33.55
2018-06-18T15:20:23.586Z,35.15
2018-06-18T15:25:10.539Z,35.25
2018-06-18T15:29:50.085Z,33.69
2018-06-18T15:34:32.772Z,35.21
2018-06-18T15:39:11.388Z,33.74
2018-06-18T15:43:57.024Z,33.15
2018-06-18T15:48:35.357Z,33.86
2018-06-18T15:53:17.439Z,35.51
2018-06-18T15:57:56.055Z,33.09
2018-06-18T16:02:39.359Z,32.90
2018-06-18T16:07:18.059Z,32.67
2018-06-18T16:12:03.478Z,33.40
2018-06-18T16:16:42.081Z,32.56
2018-06-18T16:21:23.733Z,34.42
2018-06-18T16:26:02.412Z,34.66
2018-06-18T16:30:44.624Z,33.64
2018-06-18T16:35:24.130Z,33.85
2018-06-18T16:40:02.685Z,35.16
2018-06-18T16:44:45.023Z,37.83
2018-06-18T16:49:23.534Z,37.14
2018-06-18T16:54:03.167Z,38.14
2018-06-18T16:58:41.720Z,39.11
2018-06-18T17:03:23.807Z,39.67
2018-06-18T17:08:02.339Z,39.49
2018-06-18T17:12:44.876Z,39.90
2018-06-18T17:17:23.483Z,41.45
2018-06-18T17:22:06.376Z,39.07
2018-06-18T17:26:44.685Z,40.32
2018-06-18T17:31:26.811Z,40.65
2018-06-18T17:36:05.483Z,40.12
2018-06-18T17:40:48.086Z,40.09
2018-06-18T17:45:26.738Z,40.94
2018-06-18T17:50:05.553Z,41.89
2018-06-18T17:54:44.242Z,43.41
2018-06-18T17:59:22.749Z,42.38
2018-06-18T18:04:05.389Z,43.64
2018-06-18T18:08:43.976Z,43.99
2018-06-18T18:13:23.814Z,44.79
2018-06-18T18:18:02.391Z,44.00
2018-06-18T18:22:44.491Z,45.15
2018-06-18T18:27:23.263Z,45.14
2018-06-18T18:32:03.113Z,46.80
2018-06-18T18:36:41.659Z,46.30
2018-06-18T18:41:20.366Z,46.51
2018-06-18T18:45:59.232Z,47.42
2018-06-18T18:50:42.089Z,46.45
2018-06-18T18:55:33.027Z,47.49
2018-06-18T19:00:12.461Z,46.69
2018-06-18T19:04:58.108Z,45.70
2018-06-18T19:09:45.214Z,46.70
2018-06-18T19:14:23.698Z,47.79
2018-06-18T19:19:03.596Z,48.95
2018-06-18T19:23:45.921Z,49.52
2018-06-18T19:28:34.714Z,48.38
2018-06-18T19:33:23.127Z,49.36
2018-06-18T19:38:02.752Z,49.20
2018-06-18T19:42:42.499Z,49.64
2018-06-18T19:47:41.124Z,47.60
2018-06-18T19:52:28.806Z,47.05
2018-06-18T19:57:26.228Z,47.22
2018-06-18T20:02:04.960Z,47.51
2018-06-18T20:06:43.665Z,47.37
2018-06-18T20:11:22.537Z,47.29
2018-06-18T20:16:01.162Z,46.46
2018-06-18T20:20:39.853Z,46.37
2018-06-18T20:25:21.760Z,46.56
2018-06-18T20:30:00.507Z,47.98
2018-06-18T20:34:40.297Z,48.13
2018-06-18T20:39:19.701Z,47.62
2018-06-18T20:49:15.537Z,47.19
2018-06-18T20:53:55.372Z,46.84
2018-06-18T20:58:33.932Z,47.31
2018-06-18T21:03:12.658Z,47.17
2018-06-18T21:07:51.354Z,47.85
2018-06-18T21:18:04.387Z,48.27
2018-06-18T21:22:43.125Z,48.55
2018-06-18T21:27:21.711Z,49.22
2018-06-18T21:32:03.510Z,50.24
2018-06-18T21:36:42.108Z,52.91
2018-06-18T21:41:21.864Z,53.24
2018-06-18T21:46:00.370Z,51.78
2018-06-18T21:50:39.942Z,53.55
2018-06-18T21:55:18.573Z,52.95
2018-06-18T21:59:58.305Z,52.81
2018-06-18T22:04:37.438Z,53.12
2018-06-18T22:09:23.305Z,52.69
2018-06-18T22:14:01.861Z,52.34
2018-06-18T22:18:40.358Z,53.06
2018-06-18T22:23:19.066Z,53.84
2018-06-18T22:27:57.712Z,52.89
2018-06-18T22:32:40.046Z,51.56
2018-06-18T22:37:18.665Z,53.13
2018-06-18T22:41:58.378Z,53.09
2018-06-18T22:46:37.598Z,52.47
2018-06-18T22:51:17.217Z,52.36
2018-06-18T22:55:55.844Z,51.94
2018-06-18T23:00:34.579Z,52.43
2018-06-18T23:05:13.133Z,52.21
2018-06-18T23:09:51.809Z,52.21
2018-06-18T23:14:30.235Z,52.30
2018-06-18T23:19:08.787Z,53.77
2018-06-18T23:23:47.441Z,57.18
2018-06-18T23:28:40.814Z,59.79
2018-06-18T23:33:23.003Z,63.72
2018-06-18T23:38:01.694Z,64.60
2018-06-18T23:42:40.267Z,66.66
2018-06-18T23:47:18.854Z,66.55
2018-06-18T23:51:57.549Z,68.20
2018-06-18T23:56:36.254Z,70.50
